Aérodrome :
LOGIN :

S'inscrire | Disclaimer

   EN    FR    IT 

 










Légende :    VFR   VFR Marginal   IFR   IFR Intensif   IFR Très Intensif
Visi : 
Plafond : 
>= 8 km
>= 3000ft
5 à 8 km
1000 à 3000 ft
1500m à 5 km
500 à 1000 ft
800 à 1500m
200 à 500 ft
< 800m
< 200 ft
Symboles :   Orages  Brouillard  Fortes neiges  Fortes précipitations  Vent > 20 kt
SIGMETs :   Divers  Orages  Givrage  Turbulence  Onde Orograph.  Cendres Volcan.






- Altitude de l'aérodrome : 755 ft
- Code IATA : KSC


LZKZ - Kosice

DERNIER METAR :
  • 150030Z VRB02KT 9999 FEW043 BKN045 11/09 Q1012

METARs EXPIRÉS :
  • 150000Z 35003KT 9999 -RA FEW042 BKN065 11/10 Q1012
  • 142330Z 30003KT 260V330 9999 FEW046 BKN062 10/10 Q1012
  • 142300Z VRB01KT 9999 SCT015 BKN060 11/10 Q1012
  • 142230Z 09002KT 9999 FEW042 BKN051 10/09 Q1012
  • 142200Z VRB02KT 9999 FEW043 BKN060 10/09 Q1012

TAF TAF LZKZ
Valide du 15 à 00h jusqu'au 16 à 00h UTC


142300Z 1500/1600 02005KT 9999 FEW037 BKN055
TEMPO 1500/1512 6000 -RA SCT025 OVC046
PROB40
TEMPO 1501/1508 VRB02KT 2500 -RA BR SCT008 BKN020
BECMG 1512/1514 21006KT BKN030
TEMPO 1514/1520 -RA
BECMG 1518/1520 VRB02KT



MET'MAP, la Météo Aéronautique d'un coup d'oeil ! - Copyright ORBIFLY Décembre 2007 - Disclaimer

ORBIFLY MET'MAP TEAM :

Programmation & Développement : Alexandra Zaïnal
Conception & Développement : Baudouin d'Aumeries
Co-Programmation & Développement : Marc-Olivier Méhu
Soutien technique & logistique : Manuel Goepfert

Contact : metmap@orbifly.com




SOURCES & CREDITS :

   NOAA